createdAt,value
2018-07-21T00:00:35.624Z,22.30
2018-07-21T00:03:04.209Z,22.30
2018-07-21T00:05:32.785Z,22.30
2018-07-21T00:08:01.378Z,22.30
2018-07-21T00:10:29.988Z,22.30
2018-07-21T00:12:58.942Z,22.30
2018-07-21T00:15:27.512Z,22.30
2018-07-21T00:17:56.025Z,22.30
2018-07-21T00:20:24.607Z,22.30
2018-07-21T00:22:53.157Z,22.30
2018-07-21T00:25:21.665Z,22.20
2018-07-21T00:27:50.467Z,22.20
2018-07-21T00:30:18.990Z,22.20
2018-07-21T00:32:47.765Z,22.20
2018-07-21T00:35:16.284Z,22.20
2018-07-21T00:37:44.858Z,22.20
2018-07-21T00:40:13.405Z,22.20
2018-07-21T00:42:42.463Z,22.20
2018-07-21T00:45:11.297Z,22.10
2018-07-21T00:47:40.081Z,22.10
2018-07-21T00:50:08.660Z,22.10
2018-07-21T00:52:37.489Z,22.10
2018-07-21T00:55:06.044Z,22.10
2018-07-21T00:57:34.550Z,22.10
2018-07-21T01:00:03.167Z,22.10
2018-07-21T01:02:32.345Z,22.10
2018-07-21T01:05:00.902Z,22.10
2018-07-21T01:07:29.521Z,22.10
2018-07-21T01:09:58.152Z,22.10
2018-07-21T01:12:26.795Z,22.00
2018-07-21T01:14:55.338Z,22.00
2018-07-21T01:17:23.919Z,22.00
2018-07-21T01:19:52.524Z,22.00
2018-07-21T01:22:21.096Z,21.90
2018-07-21T01:24:49.815Z,21.90
2018-07-21T01:27:18.366Z,21.90
2018-07-21T01:29:46.948Z,21.90
2018-07-21T01:32:15.454Z,21.90
2018-07-21T01:34:44.034Z,21.90
2018-07-21T01:37:12.589Z,21.90
2018-07-21T01:39:41.204Z,21.90
2018-07-21T01:42:09.781Z,21.90
2018-07-21T01:44:38.452Z,21.90
2018-07-21T01:47:07.372Z,21.80
2018-07-21T01:49:35.951Z,21.80
2018-07-21T01:52:04.531Z,21.80
2018-07-21T01:54:33.160Z,21.70
2018-07-21T01:57:02.053Z,21.70
2018-07-21T01:59:30.768Z,21.60
2018-07-21T02:01:59.872Z,21.60
2018-07-21T02:04:28.417Z,21.60
2018-07-21T02:06:57.232Z,21.50
2018-07-21T02:09:26.060Z,21.50
2018-07-21T02:11:54.637Z,21.40
2018-07-21T02:14:23.380Z,21.40
2018-07-21T02:16:51.902Z,21.40
2018-07-21T02:19:20.494Z,21.30
2018-07-21T02:21:49.030Z,21.30
2018-07-21T02:24:17.595Z,21.40
2018-07-21T02:26:46.176Z,21.30
2018-07-21T02:29:14.888Z,21.30
2018-07-21T02:31:43.469Z,21.30
2018-07-21T02:34:11.988Z,21.30
2018-07-21T02:36:40.634Z,21.30
2018-07-21T02:39:10.988Z,21.30
2018-07-21T02:41:39.664Z,21.20
2018-07-21T02:44:08.179Z,21.20
2018-07-21T02:46:36.741Z,21.20
2018-07-21T02:49:05.519Z,21.20
2018-07-21T02:51:34.086Z,21.20
2018-07-21T02:54:02.724Z,21.20
2018-07-21T02:56:31.528Z,21.20
2018-07-21T02:59:00.122Z,21.20
2018-07-21T03:01:28.694Z,21.20
2018-07-21T03:03:57.238Z,21.20
2018-07-21T03:06:25.700Z,21.10
2018-07-21T03:08:54.334Z,21.10
2018-07-21T03:11:22.857Z,21.10
2018-07-21T03:13:51.334Z,21.00
2018-07-21T03:16:19.890Z,21.00
2018-07-21T03:18:48.416Z,21.00
2018-07-21T03:21:16.930Z,21.00
2018-07-21T03:23:45.445Z,20.90
2018-07-21T03:26:13.981Z,20.90
2018-07-21T03:28:42.478Z,20.90
2018-07-21T03:31:10.987Z,20.90
2018-07-21T03:33:39.714Z,20.90
2018-07-21T03:36:08.259Z,20.90
2018-07-21T03:38:36.817Z,20.90
2018-07-21T03:41:05.416Z,20.90
2018-07-21T03:43:34.604Z,20.90
2018-07-21T03:46:03.594Z,20.90
2018-07-21T03:48:32.359Z,20.90
2018-07-21T03:51:01.259Z,20.90
2018-07-21T03:55:59.473Z,20.90
2018-07-21T03:58:28.412Z,20.90
2018-07-21T04:00:57.014Z,20.90
2018-07-21T04:03:25.707Z,20.90
2018-07-21T04:05:54.348Z,20.90
2018-07-21T04:08:23.404Z,20.90
2018-07-21T04:10:52.175Z,20.90
2018-07-21T04:13:20.928Z,20.90
2018-07-21T04:15:49.604Z,20.90
2018-07-21T04:18:18.320Z,20.90
2018-07-21T04:20:47.364Z,20.90
2018-07-21T04:23:16.307Z,20.90
2018-07-21T04:25:44.870Z,20.90
2018-07-21T04:28:13.490Z,20.80
2018-07-21T04:30:42.329Z,20.70
2018-07-21T04:33:10.942Z,20.60
2018-07-21T04:35:39.992Z,20.60
2018-07-21T04:38:08.643Z,20.60
2018-07-21T04:40:38.400Z,20.60
2018-07-21T04:43:07.412Z,20.60
2018-07-21T04:45:36.292Z,20.60
2018-07-21T04:48:05.471Z,20.60
2018-07-21T04:50:34.183Z,20.60
2018-07-21T04:53:02.824Z,20.60
2018-07-21T04:55:31.474Z,20.60
2018-07-21T04:58:00.977Z,20.60
2018-07-21T05:00:30.090Z,20.60
2018-07-21T05:02:58.771Z,20.60
2018-07-21T05:05:27.384Z,20.60
2018-07-21T05:07:56.275Z,20.60
2018-07-21T05:10:24.854Z,20.70
2018-07-21T05:12:53.648Z,20.70
2018-07-21T05:15:22.265Z,20.70
2018-07-21T05:17:50.781Z,20.70
2018-07-21T05:20:19.713Z,20.70
2018-07-21T05:22:48.268Z,20.70
2018-07-21T05:25:16.853Z,20.80
2018-07-21T05:27:45.431Z,20.80
2018-07-21T05:30:14.016Z,20.80
2018-07-21T05:32:42.624Z,20.90
2018-07-21T05:37:39.767Z,20.90
2018-07-21T05:40:08.354Z,21.00
2018-07-21T05:42:37.395Z,21.10
2018-07-21T05:45:06.410Z,21.10
2018-07-21T05:47:35.186Z,21.10
2018-07-21T05:50:04.344Z,21.10
2018-07-21T05:52:32.949Z,21.00
2018-07-21T05:55:01.749Z,21.00
2018-07-21T05:57:30.615Z,21.00
2018-07-21T05:59:59.299Z,21.00
2018-07-21T06:02:27.983Z,21.10
2018-07-21T06:04:56.537Z,21.10
2018-07-21T06:07:25.108Z,21.10
2018-07-21T06:09:54.023Z,21.20
2018-07-21T06:12:22.996Z,21.20
2018-07-21T06:14:53.620Z,21.30
2018-07-21T06:17:22.781Z,21.30
2018-07-21T06:19:52.093Z,21.40
2018-07-21T06:22:21.948Z,21.50
2018-07-21T06:24:50.586Z,21.50
2018-07-21T06:27:20.051Z,21.50
2018-07-21T06:29:48.850Z,21.60
2018-07-21T06:32:17.521Z,21.60
2018-07-21T06:34:46.152Z,21.60
2018-07-21T06:37:15.049Z,21.60
2018-07-21T06:42:12.043Z,21.70
2018-07-21T06:47:11.772Z,21.90
2018-07-21T06:49:40.590Z,21.90
2018-07-21T06:52:09.313Z,22.00
2018-07-21T06:54:38.818Z,22.10
2018-07-21T06:59:35.767Z,22.30
2018-07-21T07:02:04.600Z,22.30
2018-07-21T07:04:33.247Z,22.50
2018-07-21T07:07:01.860Z,22.60
2018-07-21T07:09:30.460Z,22.60
2018-07-21T07:11:59.071Z,22.70
2018-07-21T07:14:28.127Z,22.80
2018-07-21T07:19:25.620Z,23.00
2018-07-21T07:21:54.573Z,23.10
2018-07-21T07:24:23.544Z,23.20
2018-07-21T07:26:52.181Z,23.30
2018-07-21T07:29:20.738Z,23.40
2018-07-21T07:31:49.415Z,23.50
2018-07-21T07:34:30.589Z,23.50
2018-07-21T07:36:59.721Z,23.50
2018-07-21T07:39:28.317Z,23.50
2018-07-21T07:41:56.951Z,23.60
2018-07-21T07:44:25.620Z,23.70
2018-07-21T07:46:54.430Z,23.80
2018-07-21T07:49:22.985Z,23.80
2018-07-21T07:54:20.010Z,24.00
2018-07-21T07:56:48.728Z,24.20
2018-07-21T07:59:17.322Z,24.30
2018-07-21T08:01:45.933Z,24.40
2018-07-21T08:04:14.521Z,24.50
2018-07-21T08:06:43.120Z,24.50
2018-07-21T08:09:12.871Z,24.50
2018-07-21T08:11:42.238Z,24.60
2018-07-21T08:14:11.110Z,24.70
2018-07-21T08:16:39.968Z,24.70
2018-07-21T08:19:09.473Z,24.80
2018-07-21T08:21:38.220Z,24.80
2018-07-21T08:24:06.934Z,24.90
2018-07-21T08:26:35.584Z,24.90
2018-07-21T08:29:04.756Z,25.00
2018-07-21T08:31:33.478Z,25.10
2018-07-21T08:34:02.533Z,25.20
2018-07-21T08:36:31.780Z,25.20
2018-07-21T08:39:00.527Z,25.40
2018-07-21T08:41:29.299Z,25.40
2018-07-21T08:43:57.853Z,25.50
2018-07-21T08:46:26.509Z,25.50
2018-07-21T08:48:55.115Z,25.60
2018-07-21T08:51:23.601Z,25.60
2018-07-21T08:53:52.656Z,25.70
2018-07-21T08:56:21.669Z,25.70
2018-07-21T08:58:50.310Z,25.70
2018-07-21T09:01:18.960Z,25.80
2018-07-21T09:03:47.565Z,25.80
2018-07-21T09:06:16.535Z,25.90
2018-07-21T09:08:45.100Z,25.90
2018-07-21T09:11:13.671Z,25.90
2018-07-21T09:13:42.364Z,25.90
2018-07-21T09:16:11.005Z,25.90
2018-07-21T09:18:39.779Z,26.10
2018-07-21T09:21:08.369Z,26.20
2018-07-21T09:23:37.280Z,26.20
2018-07-21T09:26:06.044Z,26.20
2018-07-21T09:28:34.697Z,26.30
2018-07-21T09:31:03.361Z,26.40
2018-07-21T09:33:32.578Z,26.50
2018-07-21T09:36:01.775Z,26.60
2018-07-21T09:38:31.528Z,26.60
2018-07-21T09:41:00.208Z,26.70
2018-07-21T09:43:29.424Z,26.70
2018-07-21T09:45:58.723Z,26.70
2018-07-21T09:48:27.255Z,26.80
2018-07-21T09:50:55.860Z,26.80
2018-07-21T09:53:25.014Z,26.90
2018-07-21T09:55:54.220Z,26.90
2018-07-21T09:58:23.647Z,26.90
2018-07-21T10:00:58.088Z,26.90
2018-07-21T10:03:27.392Z,27.00
2018-07-21T10:05:56.034Z,26.90
2018-07-21T10:08:25.228Z,26.90
2018-07-21T10:10:53.775Z,26.80
2018-07-21T10:13:22.348Z,26.80
2018-07-21T10:15:51.001Z,26.70
2018-07-21T10:18:19.700Z,26.70
2018-07-21T10:20:48.659Z,26.70
2018-07-21T10:23:17.281Z,26.70
2018-07-21T10:25:51.138Z,26.80
2018-07-21T10:28:25.241Z,26.80
2018-07-21T10:30:53.805Z,26.80
2018-07-21T10:33:22.425Z,26.80
2018-07-21T10:35:51.100Z,26.80
2018-07-21T10:38:19.801Z,26.90
2018-07-21T10:40:48.464Z,26.90
2018-07-21T10:43:17.413Z,26.90
2018-07-21T10:45:46.046Z,27.00
2018-07-21T10:48:14.684Z,27.00
2018-07-21T10:50:43.559Z,27.00
2018-07-21T10:53:12.197Z,27.00
2018-07-21T10:55:41.168Z,27.00
2018-07-21T10:58:10.464Z,27.00
2018-07-21T11:00:39.719Z,26.90
2018-07-21T11:03:08.503Z,26.90
2018-07-21T11:05:37.535Z,27.00
2018-07-21T11:08:06.405Z,27.00
2018-07-21T11:10:34.984Z,27.10
2018-07-21T11:13:03.622Z,27.10
2018-07-21T11:15:32.268Z,27.20
2018-07-21T11:18:01.199Z,27.30
2018-07-21T11:20:30.336Z,27.30
2018-07-21T11:22:59.089Z,27.30
2018-07-21T11:25:27.811Z,27.30
2018-07-21T11:27:56.594Z,27.30
2018-07-21T11:30:25.241Z,27.30
2018-07-21T11:32:53.877Z,27.40
2018-07-21T11:35:22.851Z,27.40
2018-07-21T11:40:19.909Z,27.50
2018-07-21T11:42:48.578Z,27.60
2018-07-21T11:45:17.381Z,27.60
2018-07-21T11:47:45.965Z,27.70
2018-07-21T11:50:14.705Z,27.60
2018-07-21T11:52:43.257Z,27.70
2018-07-21T11:55:12.131Z,27.70
2018-07-21T11:57:41.101Z,27.70
2018-07-21T12:00:09.892Z,27.70
2018-07-21T12:02:39.476Z,27.60
2018-07-21T12:07:37.172Z,27.50
2018-07-21T12:10:05.827Z,27.40
2018-07-21T12:12:34.447Z,27.30
2018-07-21T12:15:03.232Z,27.20
2018-07-21T12:17:31.843Z,27.20
2018-07-21T12:20:01.037Z,27.20
2018-07-21T12:22:29.808Z,27.20
2018-07-21T12:24:58.622Z,27.20
2018-07-21T12:27:27.255Z,27.30
2018-07-21T12:29:56.205Z,27.30
2018-07-21T12:32:25.052Z,27.40
2018-07-21T12:34:53.684Z,27.40
2018-07-21T12:37:22.237Z,27.40
2018-07-21T12:39:51.151Z,27.50
2018-07-21T12:42:19.747Z,27.40
2018-07-21T12:44:48.350Z,27.40
2018-07-21T12:47:16.876Z,27.40
2018-07-21T12:49:45.525Z,27.30
2018-07-21T12:52:14.236Z,27.30
2018-07-21T12:54:42.981Z,27.20
2018-07-21T12:57:11.636Z,27.10
2018-07-21T12:59:40.880Z,27.10
2018-07-21T13:02:09.456Z,27.10
2018-07-21T13:04:38.093Z,27.10
2018-07-21T13:07:06.758Z,27.10
2018-07-21T13:09:35.534Z,27.10
2018-07-21T13:12:04.303Z,27.10
2018-07-21T13:14:33.491Z,27.00
2018-07-21T13:17:02.208Z,27.10
2018-07-21T13:19:31.859Z,27.10
2018-07-21T13:22:00.488Z,27.10
2018-07-21T13:24:29.260Z,27.10
2018-07-21T13:26:57.809Z,27.00
2018-07-21T13:29:26.766Z,27.10
2018-07-21T13:31:55.345Z,27.00
2018-07-21T13:34:23.883Z,26.90
2018-07-21T13:36:52.653Z,26.90
2018-07-21T13:39:21.707Z,26.90
2018-07-21T13:41:50.484Z,26.90
2018-07-21T13:44:19.170Z,26.80
2018-07-21T13:49:16.536Z,26.70
2018-07-21T13:51:45.245Z,26.70
2018-07-21T13:54:13.873Z,26.70
2018-07-21T13:56:42.584Z,26.70
2018-07-21T14:01:40.405Z,26.80
2018-07-21T14:04:09.047Z,26.80
2018-07-21T14:06:38.486Z,26.80
2018-07-21T14:09:08.339Z,26.80
2018-07-21T14:11:37.682Z,26.90
2018-07-21T14:14:06.541Z,26.90
2018-07-21T14:16:35.952Z,26.80
2018-07-21T14:19:05.225Z,26.70
2018-07-21T14:21:34.209Z,26.60
2018-07-21T14:24:03.871Z,26.60
2018-07-21T14:26:32.937Z,26.60
2018-07-21T14:29:01.627Z,26.60
2018-07-21T14:33:59.220Z,26.50
2018-07-21T14:36:29.006Z,26.60
2018-07-21T14:38:57.771Z,26.50
2018-07-21T14:41:32.838Z,26.50
2018-07-21T14:44:01.595Z,26.40
2018-07-21T14:48:59.381Z,26.40
2018-07-21T14:51:28.701Z,26.50
2018-07-21T14:53:57.256Z,26.60
2018-07-21T14:56:26.476Z,26.60
2018-07-21T14:58:55.158Z,26.60
2018-07-21T15:01:24.403Z,26.70
2018-07-21T15:03:53.238Z,26.70
2018-07-21T15:06:22.681Z,26.70
2018-07-21T15:08:52.029Z,26.70
2018-07-21T15:11:20.709Z,26.70
2018-07-21T15:13:49.327Z,26.80
2018-07-21T15:16:18.017Z,26.80
2018-07-21T15:18:46.813Z,26.80
2018-07-21T15:21:15.423Z,26.80
2018-07-21T15:23:44.417Z,26.80
2018-07-21T15:26:13.016Z,26.90
2018-07-21T15:28:41.779Z,27.00
2018-07-21T15:31:10.438Z,27.10
2018-07-21T15:33:39.281Z,27.10
2018-07-21T15:36:08.102Z,27.20
2018-07-21T15:38:36.800Z,27.20
2018-07-21T15:41:05.864Z,27.20
2018-07-21T15:43:35.642Z,27.30
2018-07-21T15:46:04.352Z,27.30
2018-07-21T15:48:33.515Z,27.40
2018-07-21T15:51:02.318Z,27.60
2018-07-21T15:53:32.167Z,27.70
2018-07-21T15:56:01.633Z,27.80
2018-07-21T15:58:30.268Z,27.80
2018-07-21T16:00:59.413Z,27.80
2018-07-21T16:03:28.017Z,27.90
2018-07-21T16:06:00.167Z,27.90
2018-07-21T16:08:28.781Z,27.80
2018-07-21T16:10:57.471Z,27.70
2018-07-21T16:13:26.213Z,27.60
2018-07-21T16:15:55.135Z,27.50
2018-07-21T16:18:23.826Z,27.40
2018-07-21T16:20:52.454Z,27.40
2018-07-21T16:23:21.414Z,27.30
2018-07-21T16:25:50.112Z,27.20
2018-07-21T16:28:18.817Z,27.20
2018-07-21T16:30:47.458Z,27.10
2018-07-21T16:33:16.128Z,27.10
2018-07-21T16:35:45.501Z,27.10
2018-07-21T16:38:14.173Z,27.10
2018-07-21T16:40:43.306Z,27.10
2018-07-21T16:43:12.423Z,27.10
2018-07-21T16:45:41.112Z,27.10
2018-07-21T16:48:09.750Z,27.00
2018-07-21T16:50:39.609Z,27.00
2018-07-21T16:53:08.949Z,26.90
2018-07-21T16:55:38.727Z,26.80
2018-07-21T16:58:07.809Z,26.80
2018-07-21T17:00:36.440Z,26.70
2018-07-21T17:03:06.719Z,26.70
2018-07-21T17:05:35.343Z,26.70
2018-07-21T17:08:04.176Z,26.70
2018-07-21T17:10:32.872Z,26.60
2018-07-21T17:13:02.646Z,26.60
2018-07-21T17:15:32.361Z,26.60
2018-07-21T17:18:01.989Z,26.60
2018-07-21T17:20:30.703Z,26.50
2018-07-21T17:22:59.449Z,26.50
2018-07-21T17:25:28.863Z,26.50
2018-07-21T17:27:57.530Z,26.40
2018-07-21T17:30:26.487Z,26.20
2018-07-21T17:32:55.625Z,26.10
2018-07-21T17:35:24.385Z,26.00
2018-07-21T17:37:53.860Z,26.00
2018-07-21T17:40:22.907Z,25.90
2018-07-21T17:42:51.923Z,25.90
2018-07-21T17:45:20.669Z,25.90
2018-07-21T17:47:49.651Z,25.90
2018-07-21T17:50:18.963Z,25.80
2018-07-21T17:52:47.575Z,25.80
2018-07-21T17:55:16.306Z,25.70
2018-07-21T18:00:14.184Z,25.70
2018-07-21T18:02:43.001Z,25.60
2018-07-21T18:05:11.626Z,25.60
2018-07-21T18:07:40.650Z,25.60
2018-07-21T18:10:10.076Z,25.50
2018-07-21T18:12:39.041Z,25.50
2018-07-21T18:17:37.395Z,25.50
2018-07-21T18:20:06.509Z,25.50
2018-07-21T18:22:35.488Z,25.40
2018-07-21T18:25:04.315Z,25.40
2018-07-21T18:27:33.929Z,25.40
2018-07-21T18:30:02.713Z,25.30
2018-07-21T18:32:31.634Z,25.30
2018-07-21T18:35:00.763Z,25.30
2018-07-21T18:37:29.657Z,25.20
2018-07-21T18:40:00.120Z,25.20
2018-07-21T18:42:29.180Z,25.10
2018-07-21T18:44:59.002Z,25.10
2018-07-21T18:49:56.961Z,25.10
2018-07-21T18:52:25.876Z,25.00
2018-07-21T18:54:54.781Z,24.90
2018-07-21T18:57:23.406Z,24.90
2018-07-21T18:59:52.169Z,24.90
2018-07-21T19:02:20.889Z,24.80
2018-07-21T19:04:50.145Z,24.80
2018-07-21T19:09:47.184Z,24.80
2018-07-21T19:12:21.211Z,24.80
2018-07-21T19:14:49.803Z,24.80
2018-07-21T19:17:18.352Z,24.70
2018-07-21T19:19:52.195Z,24.60
2018-07-21T19:22:21.502Z,24.50
2018-07-21T19:24:51.936Z,24.50
2018-07-21T19:27:25.961Z,24.40
2018-07-21T19:29:54.503Z,24.40
2018-07-21T19:32:28.365Z,24.30
2018-07-21T19:34:57.051Z,24.20
2018-07-21T19:37:31.300Z,24.20
2018-07-21T19:39:59.877Z,24.20
2018-07-21T19:42:28.523Z,24.10
2018-07-21T19:44:57.162Z,24.10
2018-07-21T19:47:25.777Z,24.10
2018-07-21T19:49:54.358Z,24.00
2018-07-21T19:52:22.984Z,24.00
2018-07-21T19:54:51.599Z,24.00
2018-07-21T19:57:20.392Z,24.00
2018-07-21T19:59:48.888Z,23.90
2018-07-21T20:02:17.532Z,23.90
2018-07-21T20:04:46.010Z,23.80
2018-07-21T20:07:14.502Z,23.80
2018-07-21T20:09:44.704Z,23.70
2018-07-21T20:12:13.205Z,23.60
2018-07-21T20:14:41.767Z,23.60
2018-07-21T20:17:10.388Z,23.50
2018-07-21T20:22:07.907Z,23.40
2018-07-21T20:24:37.050Z,23.30
2018-07-21T20:27:05.570Z,23.30
2018-07-21T20:29:34.143Z,23.20
2018-07-21T20:32:04.356Z,23.20
2018-07-21T20:34:33.736Z,23.20
2018-07-21T20:37:02.328Z,23.10
2018-07-21T20:39:30.996Z,23.10
2018-07-21T20:41:59.512Z,23.10
2018-07-21T20:44:28.381Z,23.00
2018-07-21T20:46:57.465Z,23.00
2018-07-21T20:49:26.092Z,23.00
2018-07-21T20:51:55.660Z,22.90
2018-07-21T20:54:24.202Z,22.90
2018-07-21T20:56:52.752Z,22.80
2018-07-21T20:59:21.656Z,22.70
2018-07-21T21:01:51.143Z,22.70
2018-07-21T21:04:19.834Z,22.60
2018-07-21T21:06:48.526Z,22.60
2018-07-21T21:09:17.277Z,22.60
2018-07-21T21:11:46.286Z,22.50
2018-07-21T21:14:14.944Z,22.40
2018-07-21T21:16:44.115Z,22.40
2018-07-21T21:19:12.707Z,22.30
2018-07-21T21:21:41.707Z,22.20
2018-07-21T21:24:10.410Z,22.10
2018-07-21T21:26:39.186Z,22.00
2018-07-21T21:29:08.387Z,22.00
2018-07-21T21:31:37.092Z,21.90
2018-07-21T21:34:05.792Z,21.90
2018-07-21T21:36:34.545Z,21.90
2018-07-21T21:39:03.166Z,21.80
2018-07-21T21:41:32.505Z,21.70
2018-07-21T21:44:01.846Z,21.70
2018-07-21T21:46:30.865Z,21.60
2018-07-21T21:49:01.740Z,21.60
2018-07-21T21:51:32.139Z,21.50
2018-07-21T21:54:02.415Z,21.40
2018-07-21T21:56:34.771Z,21.40
2018-07-21T21:59:06.249Z,21.40
2018-07-21T22:01:36.916Z,21.40
2018-07-21T22:04:07.776Z,21.40
2018-07-21T22:06:39.141Z,21.30
2018-07-21T22:09:11.319Z,21.30
2018-07-21T22:11:41.835Z,21.30
2018-07-21T22:14:12.749Z,21.20
2018-07-21T22:16:43.950Z,21.20
2018-07-21T22:19:14.277Z,21.20
2018-07-21T22:21:44.250Z,21.10
2018-07-21T22:24:14.077Z,21.10
2018-07-21T22:26:44.597Z,21.10
2018-07-21T22:29:13.147Z,21.00
2018-07-21T22:31:45.608Z,21.00
2018-07-21T22:34:15.800Z,21.00
2018-07-21T22:36:45.997Z,20.90
2018-07-21T22:39:16.371Z,20.90
2018-07-21T22:44:14.886Z,20.90
2018-07-21T22:46:44.930Z,20.80
2018-07-21T22:51:44.773Z,20.70
2018-07-21T22:54:13.653Z,20.70
2018-07-21T22:56:42.667Z,20.70
2018-07-21T22:59:12.772Z,20.70
2018-07-21T23:01:43.878Z,20.70
2018-07-21T23:04:14.476Z,20.70
2018-07-21T23:06:43.273Z,20.70
2018-07-21T23:09:13.836Z,20.70
2018-07-21T23:11:44.250Z,20.70
2018-07-21T23:14:15.090Z,20.70
2018-07-21T23:16:46.747Z,20.60
2018-07-21T23:19:18.293Z,20.60
2018-07-21T23:21:49.600Z,20.50
2018-07-21T23:24:19.832Z,20.50
2018-07-21T23:26:51.854Z,20.50
2018-07-21T23:29:22.436Z,20.50
2018-07-21T23:31:53.572Z,20.40
2018-07-21T23:34:23.928Z,20.40
2018-07-21T23:36:53.875Z,20.40
2018-07-21T23:39:24.784Z,20.30
2018-07-21T23:41:56.151Z,20.30
2018-07-21T23:44:26.567Z,20.30
2018-07-21T23:46:57.603Z,20.20
2018-07-21T23:49:28.055Z,20.20
2018-07-21T23:51:59.507Z,20.20
2018-07-21T23:54:31.072Z,20.20
2018-07-21T23:59:33.784Z,20.20
